23NK weather

Long Acre Farms Airport
Macedon, New York, United States

Public forecast

Using degrees Fahrenheit for public forecast. Weather courtesy of forecast.io.

Closest aviation weather report (METAR) to Long Acre Farms Airport

Closest report is Greater Rochester International Airport, 15.8 nm (29.2 km) W. Retrieved 2019/10/16 22:11 UTC (41 minutes ago):

KROC 162211Z 23005KT 7SM -RA BKN028 BKN040 OVC060 11/09 A2953

Closest aviation forecast (TAF) to Long Acre Farms Airport

Closest forecast is Greater Rochester International Airport, 15.8 nm (29.2 km) W. Retrieved 2019/10/16 18:24 UTC (4 hours ago):

TAF KROC 161723Z 1618/1718 25009KT 4SM RA BR OVC025 TEMPO 1618/1621 2SM RA BR OVC015 FM162200 26008KT P6SM VCSH OVC035 FM170300 26008KT P6SM VCSH BKN025 FM170600 27012G20KT P6SM VCSH OVC035 FM170800 28014G23KT 6SM -SHRA BR OVC020 FM171400 30020G33KT 3SM SHRA BR OVC012